N178T KBID-6B6
Flight info
| Callsign | N178T |
|---|---|
| Flight time | N/A |
| Altitude | 4500 |
| Route | PUT |
| Aircraft | TB21/L-SDGRY/S |
Departure
| Time | 2026-04-20 10:38 |
|---|---|
| Airport | Block Island State Airport (KBID) |
Arrival
| Time | N/A |
|---|---|
| Airport | 6B6 |
| Time | Latitude | Longitude | Altitude | Speed | Heading |
|---|---|---|---|---|---|
| 2026-04-20 10:35 | 41.16880 | -71.57965 | 120 ft | 0 kts | 354° |
| 2026-04-20 10:35 | 41.16884 | -71.57965 | 120 ft | 2 kts | 9° |
| 2026-04-20 10:36 | 41.16895 | -71.57914 | 120 ft | 9 kts | 93° |
| 2026-04-20 10:36 | 41.16879 | -71.57798 | 117 ft | 16 kts | 90° |
| 2026-04-20 10:36 | 41.16886 | -71.57614 | 109 ft | 22 kts | 98° |
| 2026-04-20 10:36 | 41.16843 | -71.57442 | 101 ft | 19 kts | 96° |
| 2026-04-20 10:37 | 41.16855 | -71.57343 | 95 ft | 6 kts | 251° |
| 2026-04-20 10:37 | 41.16847 | -71.57372 | 97 ft | 0 kts | 261° |
| 2026-04-20 10:37 | 41.16839 | -71.57455 | 102 ft | 25 kts | 261° |
| 2026-04-20 10:38 | 41.16793 | -71.57948 | 134 ft | 73 kts | 258° |
| 2026-04-20 10:38 | 41.16718 | -71.58633 | 315 ft | 76 kts | 259° |
| 2026-04-20 10:38 | 41.16631 | -71.59380 | 538 ft | 85 kts | 263° |
| 2026-04-20 10:38 | 41.16713 | -71.60136 | 790 ft | 90 kts | 297° |
| 2026-04-20 10:39 | 41.17276 | -71.60699 | 882 ft | 118 kts | 341° |
| 2026-04-20 10:39 | 41.18083 | -71.60867 | 1276 ft | 111 kts | 351° |
| 2026-04-20 10:39 | 41.18798 | -71.60917 | 1642 ft | 106 kts | 349° |
| 2026-04-20 10:39 | 41.19591 | -71.61008 | 1813 ft | 116 kts | 349° |
| 2026-04-20 10:40 | 41.20361 | -71.61083 | 2161 ft | 110 kts | 349° |
| 2026-04-20 10:40 | 41.21147 | -71.61174 | 2382 ft | 115 kts | 348° |
| 2026-04-20 10:40 | 41.21931 | -71.61249 | 2695 ft | 112 kts | 349° |
| 2026-04-20 10:40 | 41.22723 | -71.61289 | 2937 ft | 115 kts | 352° |
| 2026-04-20 10:41 | 41.23526 | -71.61298 | 3214 ft | 114 kts | 351° |
| 2026-04-20 10:41 | 41.24301 | -71.61432 | 3480 ft | 112 kts | 343° |
| 2026-04-20 10:41 | 41.25063 | -71.61630 | 3718 ft | 113 kts | 341° |
| 2026-04-20 10:41 | 41.25828 | -71.61855 | 3977 ft | 112 kts | 341° |
| 2026-04-20 10:42 | 41.26602 | -71.62063 | 4204 ft | 114 kts | 344° |
| 2026-04-20 10:42 | 41.27386 | -71.62185 | 4364 ft | 114 kts | 348° |
| 2026-04-20 10:42 | 41.28201 | -71.62251 | 4401 ft | 120 kts | 352° |
| 2026-04-20 10:42 | 41.29042 | -71.62299 | 4437 ft | 121 kts | 345° |
| 2026-04-20 10:43 | 41.29890 | -71.62450 | 4459 ft | 123 kts | 345° |
| 2026-04-20 10:43 | 41.30736 | -71.62640 | 4465 ft | 126 kts | 343° |
| 2026-04-20 10:43 | 41.31596 | -71.62872 | 4502 ft | 125 kts | 341° |
| 2026-04-20 10:43 | 41.32453 | -71.63123 | 4480 ft | 129 kts | 341° |
| 2026-04-20 10:44 | 41.33332 | -71.63376 | 4494 ft | 129 kts | 342° |
| 2026-04-20 10:44 | 41.34223 | -71.63594 | 4504 ft | 130 kts | 343° |
| 2026-04-20 10:44 | 41.35118 | -71.63799 | 4483 ft | 132 kts | 343° |
| 2026-04-20 10:44 | 41.36023 | -71.64024 | 4525 ft | 129 kts | 342° |
| 2026-04-20 10:45 | 41.36888 | -71.64288 | 4518 ft | 130 kts | 339° |
| 2026-04-20 10:45 | 41.37752 | -71.64659 | 4503 ft | 128 kts | 334° |
| 2026-04-20 10:45 | 41.38595 | -71.65044 | 4512 ft | 128 kts | 335° |
| 2026-04-20 10:45 | 41.39465 | -71.65359 | 4488 ft | 131 kts | 341° |
| 2026-04-20 10:46 | 41.40360 | -71.65601 | 4508 ft | 129 kts | 341° |
| 2026-04-20 10:46 | 41.41238 | -71.65880 | 4510 ft | 129 kts | 338° |
| 2026-04-20 10:46 | 41.42096 | -71.66240 | 4499 ft | 129 kts | 334° |
| 2026-04-20 10:46 | 41.42950 | -71.66600 | 4555 ft | 129 kts | 339° |
| 2026-04-20 10:47 | 41.43844 | -71.66845 | 4556 ft | 131 kts | 342° |
| 2026-04-20 10:47 | 41.44738 | -71.67065 | 4561 ft | 131 kts | 343° |
| 2026-04-20 10:47 | 41.45644 | -71.67253 | 4530 ft | 134 kts | 346° |
| 2026-04-20 10:47 | 41.46569 | -71.67406 | 4510 ft | 133 kts | 344° |
| 2026-04-20 10:48 | 41.47471 | -71.67625 | 4510 ft | 132 kts | 341° |
| 2026-04-20 10:48 | 41.48377 | -71.67906 | 4497 ft | 131 kts | 339° |
| 2026-04-20 10:48 | 41.49243 | -71.68235 | 4509 ft | 130 kts | 336° |
| 2026-04-20 10:48 | 41.50103 | -71.68605 | 4513 ft | 130 kts | 335° |
| 2026-04-20 10:49 | 41.50984 | -71.68953 | 4487 ft | 132 kts | 339° |
| 2026-04-20 10:49 | 41.51886 | -71.69224 | 4502 ft | 132 kts | 341° |
| 2026-04-20 10:49 | 41.52793 | -71.69447 | 4488 ft | 133 kts | 342° |
| 2026-04-20 10:49 | 41.53716 | -71.69659 | 4438 ft | 135 kts | 344° |
| 2026-04-20 10:50 | 41.54642 | -71.69853 | 4454 ft | 133 kts | 344° |
| 2026-04-20 10:50 | 41.55550 | -71.70035 | 4419 ft | 134 kts | 345° |
| 2026-04-20 10:50 | 41.56488 | -71.70248 | 4406 ft | 133 kts | 343° |
| 2026-04-20 10:50 | 41.57389 | -71.70487 | 4420 ft | 131 kts | 341° |
| 2026-04-20 10:51 | 41.58276 | -71.70785 | 4361 ft | 134 kts | 338° |
| 2026-04-20 10:51 | 41.59161 | -71.71139 | 4414 ft | 129 kts | 336° |
| 2026-04-20 10:51 | 41.60007 | -71.71525 | 4394 ft | 130 kts | 333° |
| 2026-04-20 10:51 | 41.60846 | -71.71981 | 4396 ft | 128 kts | 330° |
| 2026-04-20 10:52 | 41.61689 | -71.72423 | 4386 ft | 131 kts | 335° |
| 2026-04-20 10:52 | 41.62563 | -71.72744 | 4407 ft | 130 kts | 340° |
| 2026-04-20 10:52 | 41.63454 | -71.72984 | 4398 ft | 132 kts | 342° |
| 2026-04-20 10:52 | 41.64371 | -71.73183 | 4420 ft | 131 kts | 346° |
| 2026-04-20 10:53 | 41.65272 | -71.73315 | 4456 ft | 131 kts | 347° |
| 2026-04-20 10:53 | 41.66202 | -71.73405 | 4435 ft | 133 kts | 347° |
| 2026-04-20 10:53 | 41.67097 | -71.73581 | 4484 ft | 128 kts | 341° |
| 2026-04-20 10:53 | 41.67961 | -71.73864 | 4480 ft | 129 kts | 339° |
| 2026-04-20 10:54 | 41.68837 | -71.74156 | 4467 ft | 130 kts | 340° |
| 2026-04-20 10:54 | 41.69719 | -71.74412 | 4493 ft | 129 kts | 341° |
| 2026-04-20 10:54 | 41.70604 | -71.74679 | 4492 ft | 130 kts | 340° |
| 2026-04-20 10:54 | 41.71480 | -71.74953 | 4484 ft | 131 kts | 340° |
| 2026-04-20 10:55 | 41.72366 | -71.75231 | 4506 ft | 129 kts | 340° |
| 2026-04-20 10:55 | 41.73244 | -71.75512 | 4508 ft | 130 kts | 339° |
| 2026-04-20 10:55 | 41.74130 | -71.75781 | 4524 ft | 130 kts | 341° |
| 2026-04-20 10:55 | 41.75011 | -71.76048 | 4536 ft | 129 kts | 340° |
| 2026-04-20 10:56 | 41.75901 | -71.76324 | 4542 ft | 130 kts | 340° |
| 2026-04-20 10:56 | 41.76779 | -71.76577 | 4548 ft | 130 kts | 341° |
| 2026-04-20 10:56 | 41.77668 | -71.76856 | 4567 ft | 129 kts | 340° |
| 2026-04-20 10:56 | 41.78540 | -71.77134 | 4546 ft | 131 kts | 340° |
| 2026-04-20 10:57 | 41.79442 | -71.77387 | 4541 ft | 132 kts | 341° |
| 2026-04-20 10:57 | 41.80356 | -71.77621 | 4518 ft | 133 kts | 342° |
| 2026-04-20 10:57 | 41.81268 | -71.77850 | 4519 ft | 133 kts | 341° |
| 2026-04-20 10:57 | 41.82167 | -71.78136 | 4507 ft | 132 kts | 337° |
| 2026-04-20 10:58 | 41.83045 | -71.78499 | 4502 ft | 131 kts | 334° |
| 2026-04-20 10:58 | 41.83904 | -71.78923 | 4496 ft | 131 kts | 332° |
| 2026-04-20 10:58 | 41.84746 | -71.79380 | 4495 ft | 130 kts | 330° |
| 2026-04-20 10:58 | 41.85571 | -71.79876 | 4492 ft | 130 kts | 330° |
| 2026-04-20 10:59 | 41.86395 | -71.80351 | 4493 ft | 129 kts | 330° |
| 2026-04-20 10:59 | 41.87233 | -71.80827 | 4480 ft | 131 kts | 332° |
| 2026-04-20 10:59 | 41.88111 | -71.81210 | 4461 ft | 133 kts | 338° |
| 2026-04-20 10:59 | 41.89004 | -71.81505 | 4477 ft | 132 kts | 339° |
| 2026-04-20 11:00 | 41.89896 | -71.81804 | 4459 ft | 132 kts | 337° |
| 2026-04-20 11:00 | 41.90772 | -71.82174 | 4450 ft | 131 kts | 334° |
| 2026-04-20 11:00 | 41.91632 | -71.82578 | 4463 ft | 130 kts | 335° |
| 2026-04-20 11:00 | 41.92524 | -71.82861 | 4442 ft | 134 kts | 344° |
| 2026-04-20 11:01 | 41.93473 | -71.82966 | 4419 ft | 138 kts | 353° |
| 2026-04-20 11:01 | 41.94430 | -71.82813 | 4424 ft | 141 kts | 4° |
| 2026-04-20 11:01 | 41.95385 | -71.82474 | 4419 ft | 142 kts | 9° |
| 2026-04-20 11:01 | 41.96330 | -71.82059 | 4418 ft | 143 kts | 11° |
| 2026-04-20 11:02 | 41.97271 | -71.81635 | 4414 ft | 142 kts | 10° |
| 2026-04-20 11:02 | 41.98223 | -71.81251 | 4407 ft | 141 kts | 7° |
| 2026-04-20 11:02 | 41.99169 | -71.80905 | 4404 ft | 141 kts | 8° |
| 2026-04-20 11:02 | 42.00101 | -71.80425 | 4385 ft | 146 kts | 18° |
| 2026-04-20 11:03 | 42.01009 | -71.79791 | 4388 ft | 146 kts | 21° |
| 2026-04-20 11:03 | 42.01899 | -71.79147 | 4388 ft | 145 kts | 19° |
| 2026-04-20 11:03 | 42.02816 | -71.78552 | 4372 ft | 146 kts | 20° |
| 2026-04-20 11:03 | 42.03691 | -71.77869 | 4370 ft | 147 kts | 24° |
| 2026-04-20 11:04 | 42.04575 | -71.77156 | 4367 ft | 146 kts | 21° |
| 2026-04-20 11:04 | 42.05451 | -71.76459 | 4355 ft | 149 kts | 29° |
| 2026-04-20 11:04 | 42.06239 | -71.75542 | 4341 ft | 151 kts | 37° |
| 2026-04-20 11:04 | 42.07004 | -71.74566 | 4360 ft | 150 kts | 36° |
| 2026-04-20 11:05 | 42.07766 | -71.73618 | 4329 ft | 151 kts | 35° |
| 2026-04-20 11:05 | 42.08539 | -71.72641 | 4344 ft | 150 kts | 37° |
| 2026-04-20 11:05 | 42.09289 | -71.71649 | 4334 ft | 151 kts | 38° |
| 2026-04-20 11:05 | 42.10022 | -71.70619 | 4334 ft | 152 kts | 40° |
| 2026-04-20 11:06 | 42.10722 | -71.69580 | 4333 ft | 152 kts | 41° |
| 2026-04-20 11:06 | 42.11421 | -71.68510 | 4351 ft | 151 kts | 42° |
| 2026-04-20 11:06 | 42.12103 | -71.67436 | 4340 ft | 152 kts | 43° |
| 2026-04-20 11:06 | 42.12785 | -71.66340 | 4366 ft | 150 kts | 43° |
| 2026-04-20 11:07 | 42.13461 | -71.65255 | 4368 ft | 151 kts | 42° |
| 2026-04-20 11:07 | 42.14151 | -71.64196 | 4346 ft | 152 kts | 41° |
| 2026-04-20 11:07 | 42.14862 | -71.63133 | 4372 ft | 151 kts | 40° |
| 2026-04-20 11:07 | 42.15578 | -71.62114 | 4364 ft | 151 kts | 38° |
| 2026-04-20 11:08 | 42.16334 | -71.61108 | 4386 ft | 149 kts | 37° |
| 2026-04-20 11:08 | 42.17070 | -71.60138 | 4400 ft | 149 kts | 37° |
| 2026-04-20 11:08 | 42.17833 | -71.59162 | 4378 ft | 151 kts | 36° |
| 2026-04-20 11:08 | 42.18597 | -71.58234 | 4419 ft | 147 kts | 31° |
| 2026-04-20 11:09 | 42.19424 | -71.57402 | 4385 ft | 148 kts | 27° |
| 2026-04-20 11:09 | 42.20267 | -71.56607 | 4419 ft | 146 kts | 26° |
| 2026-04-20 11:09 | 42.21101 | -71.55845 | 4335 ft | 149 kts | 27° |
| 2026-04-20 11:09 | 42.21957 | -71.55012 | 4197 ft | 151 kts | 28° |
| 2026-04-20 11:10 | 42.22783 | -71.54177 | 4155 ft | 147 kts | 29° |
| 2026-04-20 11:10 | 42.23605 | -71.53304 | 4018 ft | 151 kts | 32° |
| 2026-04-20 11:10 | 42.24406 | -71.52398 | 3937 ft | 149 kts | 33° |
| 2026-04-20 11:10 | 42.25172 | -71.51457 | 3855 ft | 151 kts | 38° |
| 2026-04-20 11:11 | 42.25915 | -71.50439 | 3748 ft | 150 kts | 34° |
| 2026-04-20 11:11 | 42.26778 | -71.49732 | 3627 ft | 144 kts | 12° |
| 2026-04-20 11:11 | 42.27751 | -71.49509 | 3517 ft | 138 kts | 353° |
| 2026-04-20 11:11 | 42.28684 | -71.49587 | 3514 ft | 133 kts | 345° |
| 2026-04-20 11:12 | 42.29606 | -71.49774 | 3502 ft | 132 kts | 345° |
| 2026-04-20 11:12 | 42.30514 | -71.49937 | 3480 ft | 133 kts | 346° |
| 2026-04-20 11:12 | 42.31444 | -71.50071 | 3475 ft | 133 kts | 348° |
| 2026-04-20 11:12 | 42.32365 | -71.50143 | 3472 ft | 132 kts | 350° |
| 2026-04-20 11:13 | 42.33294 | -71.50185 | 3434 ft | 134 kts | 351° |
| 2026-04-20 11:13 | 42.34216 | -71.50227 | 3416 ft | 133 kts | 349° |
| 2026-04-20 11:13 | 42.35122 | -71.50389 | 3395 ft | 130 kts | 342° |
| 2026-04-20 11:13 | 42.36009 | -71.50713 | 3295 ft | 133 kts | 337° |
| 2026-04-20 11:14 | 42.36893 | -71.51060 | 3294 ft | 130 kts | 339° |
| 2026-04-20 11:14 | 42.37781 | -71.51411 | 3237 ft | 131 kts | 336° |
| 2026-04-20 11:14 | 42.38685 | -71.51784 | 3188 ft | 131 kts | 337° |
| 2026-04-20 11:14 | 42.39562 | -71.52094 | 3133 ft | 132 kts | 340° |
| 2026-04-20 11:15 | 42.40442 | -71.52454 | 3043 ft | 131 kts | 333° |
| 2026-04-20 11:15 | 42.41246 | -71.52934 | 2911 ft | 120 kts | 329° |
| 2026-04-20 11:15 | 42.41991 | -71.53263 | 2560 ft | 108 kts | 344° |
| 2026-04-20 11:15 | 42.42657 | -71.53219 | 2034 ft | 92 kts | 3° |
| 2026-04-20 11:16 | 42.43187 | -71.53014 | 1609 ft | 73 kts | 7° |
| 2026-04-20 11:16 | 42.43655 | -71.52825 | 1218 ft | 70 kts | 4° |
| 2026-04-20 11:16 | 42.44128 | -71.52670 | 943 ft | 73 kts | 4° |
| 2026-04-20 11:16 | 42.44606 | -71.52475 | 734 ft | 72 kts | 11° |
| 2026-04-20 11:17 | 42.45101 | -71.52287 | 532 ft | 76 kts | 12° |
| 2026-04-20 11:17 | 42.45611 | -71.52073 | 329 ft | 76 kts | 12° |
| 2026-04-20 11:17 | 42.46078 | -71.51895 | 267 ft | 54 kts | 23° |
| 2026-04-20 11:17 | 42.46323 | -71.51789 | 269 ft | 26 kts | 17° |
| 2026-04-20 11:18 | 42.46466 | -71.51728 | 271 ft | 13 kts | 29° |
| 2026-04-20 11:18 | 42.46447 | -71.51675 | 273 ft | 9 kts | 191° |
| 2026-04-20 11:18 | 42.46396 | -71.51714 | 272 ft | 6 kts | 258° |
| 2026-04-20 11:18 | 42.46378 | -71.51730 | 271 ft | 1 kts | 162° |
| 2026-04-20 11:19 | 42.46375 | -71.51721 | 271 ft | 0 kts | 106° |